createdAt,value
2022-09-06T00:00:37.531Z,21.91
2022-09-06T00:01:37.512Z,21.92
2022-09-06T00:02:37.547Z,21.91
2022-09-06T00:03:37.528Z,21.91
2022-09-06T00:04:37.605Z,21.85
2022-09-06T00:05:37.485Z,21.85
2022-09-06T00:06:37.459Z,22.02
2022-09-06T00:07:37.452Z,21.92
2022-09-06T00:08:37.447Z,21.92
2022-09-06T00:09:37.421Z,22.04
2022-09-06T00:10:37.423Z,22.02
2022-09-06T00:11:37.404Z,21.97
2022-09-06T00:12:37.391Z,22.04
2022-09-06T00:13:37.385Z,21.83
2022-09-06T00:14:37.373Z,22.01
2022-09-06T00:15:37.430Z,21.91
2022-09-06T00:16:37.344Z,22.06
2022-09-06T00:17:37.337Z,21.90
2022-09-06T00:18:37.326Z,21.85
2022-09-06T00:19:37.314Z,21.97
2022-09-06T00:20:37.315Z,21.95
2022-09-06T00:21:37.295Z,21.85
2022-09-06T00:22:37.281Z,21.94
2022-09-06T00:23:37.261Z,21.98
2022-09-06T00:24:37.262Z,21.82
2022-09-06T00:25:37.244Z,21.92
2022-09-06T00:26:37.249Z,21.82
2022-09-06T00:27:37.226Z,22.02
2022-09-06T00:28:37.215Z,21.85
2022-09-06T00:29:37.205Z,21.85
2022-09-06T00:30:37.193Z,21.81
2022-09-06T00:31:37.278Z,21.83
2022-09-06T00:32:37.193Z,21.81
2022-09-06T00:33:37.163Z,21.85
2022-09-06T00:34:37.138Z,21.82
2022-09-06T00:35:37.128Z,21.75
2022-09-06T00:36:37.133Z,21.63
2022-09-06T00:37:37.110Z,21.64
2022-09-06T00:38:37.097Z,21.56
2022-09-06T00:39:37.177Z,21.44
2022-09-06T00:40:37.995Z,21.26
2022-09-06T00:41:37.082Z,21.24
2022-09-06T00:42:37.049Z,21.09
2022-09-06T00:43:37.047Z,21.19
2022-09-06T00:44:37.042Z,21.11
2022-09-06T00:45:37.019Z,21.05
2022-09-06T00:46:37.150Z,21.04
2022-09-06T00:47:37.002Z,21.01
2022-09-06T00:48:36.991Z,20.93
2022-09-06T00:49:36.975Z,20.87
2022-09-06T00:50:36.973Z,20.96
2022-09-06T00:51:36.976Z,20.86
2022-09-06T00:52:36.957Z,20.79
2022-09-06T00:53:36.935Z,20.87
2022-09-06T00:54:36.925Z,20.74
2022-09-06T00:55:36.905Z,20.76
2022-09-06T00:56:36.933Z,20.80
2022-09-06T00:57:36.887Z,20.74
2022-09-06T00:58:36.871Z,20.79
2022-09-06T00:59:36.861Z,20.76
2022-09-06T01:00:36.855Z,20.77
2022-09-06T01:01:36.993Z,20.74
2022-09-06T01:02:36.975Z,20.87
2022-09-06T01:03:36.815Z,20.76
2022-09-06T01:04:36.807Z,20.72
2022-09-06T01:05:36.794Z,20.71
2022-09-06T01:06:36.805Z,20.80
2022-09-06T01:07:36.770Z,20.80
2022-09-06T01:08:36.768Z,20.65
2022-09-06T01:09:36.750Z,20.65
2022-09-06T01:10:36.736Z,20.62
2022-09-06T01:11:36.756Z,20.65
2022-09-06T01:12:36.721Z,20.65
2022-09-06T01:13:36.702Z,20.76
2022-09-06T01:14:36.690Z,20.69
2022-09-06T01:15:36.734Z,20.76
2022-09-06T01:16:36.692Z,20.71
2022-09-06T01:17:36.664Z,20.79
2022-09-06T01:18:36.646Z,20.81
2022-09-06T01:19:36.640Z,20.74
2022-09-06T01:20:36.627Z,20.76
2022-09-06T01:21:36.623Z,20.77
2022-09-06T01:22:36.606Z,20.83
2022-09-06T01:23:36.599Z,20.76
2022-09-06T01:24:36.587Z,20.77
2022-09-06T01:25:36.570Z,20.69
2022-09-06T01:26:36.573Z,20.76
2022-09-06T01:27:36.545Z,20.71
2022-09-06T01:28:36.539Z,20.68
2022-09-06T01:29:36.531Z,20.65
2022-09-06T01:30:36.557Z,20.72
2022-09-06T01:31:36.513Z,20.69
2022-09-06T01:32:36.490Z,20.71
2022-09-06T01:33:36.485Z,20.69
2022-09-06T01:34:36.471Z,20.74
2022-09-06T01:35:36.463Z,20.69
2022-09-06T01:36:45.821Z,20.80
2022-09-06T01:37:37.439Z,20.79
2022-09-06T01:38:36.425Z,20.81
2022-09-06T01:39:36.474Z,20.74
2022-09-06T01:40:36.497Z,20.77
2022-09-06T01:41:36.409Z,20.77
2022-09-06T01:42:36.388Z,20.87
2022-09-06T01:43:36.384Z,20.76
2022-09-06T01:44:36.351Z,20.68
2022-09-06T01:45:36.350Z,20.80
2022-09-06T01:46:36.399Z,20.77
2022-09-06T01:47:36.332Z,20.81
2022-09-06T01:48:36.307Z,20.77
2022-09-06T01:49:36.301Z,20.83
2022-09-06T01:50:36.293Z,20.77
2022-09-06T01:51:36.304Z,20.77
2022-09-06T01:52:36.271Z,20.79
2022-09-06T01:53:36.251Z,20.79
2022-09-06T01:54:36.249Z,20.84
2022-09-06T01:55:36.229Z,20.72
2022-09-06T01:56:36.239Z,20.71
2022-09-06T01:57:36.207Z,20.71
2022-09-06T01:58:36.198Z,20.79
2022-09-06T01:59:36.190Z,20.72
2022-09-06T02:00:36.179Z,20.71
2022-09-06T02:01:36.269Z,20.77
2022-09-06T02:02:36.196Z,20.72
2022-09-06T02:03:36.148Z,20.69
2022-09-06T02:04:36.129Z,20.58
2022-09-06T02:05:36.125Z,20.58
2022-09-06T02:06:36.130Z,20.62
2022-09-06T02:07:36.105Z,20.50
2022-09-06T02:08:36.084Z,20.59
2022-09-06T02:09:36.079Z,20.56
2022-09-06T02:10:36.066Z,20.62
2022-09-06T02:11:36.065Z,20.61
2022-09-06T02:12:36.037Z,20.59
2022-09-06T02:13:36.027Z,20.61
2022-09-06T02:14:36.023Z,20.59
2022-09-06T02:15:36.006Z,20.58
2022-09-06T02:16:36.127Z,20.64
2022-09-06T02:17:35.991Z,20.47
2022-09-06T02:18:35.979Z,20.59
2022-09-06T02:19:35.961Z,20.54
2022-09-06T02:20:35.959Z,20.53
2022-09-06T02:21:35.958Z,20.56
2022-09-06T02:22:35.927Z,20.66
2022-09-06T02:23:35.925Z,20.56
2022-09-06T02:24:35.903Z,20.53
2022-09-06T02:25:35.903Z,20.59
2022-09-06T02:26:35.901Z,20.51
2022-09-06T02:27:35.878Z,20.49
2022-09-06T02:28:35.865Z,20.51
2022-09-06T02:29:35.851Z,20.58
2022-09-06T02:30:35.914Z,20.41
2022-09-06T02:31:35.844Z,20.47
2022-09-06T02:32:35.822Z,20.41
2022-09-06T02:33:35.827Z,20.49
2022-09-06T02:34:35.809Z,20.42
2022-09-06T02:35:35.790Z,20.34
2022-09-06T02:36:35.787Z,20.35
2022-09-06T02:37:35.767Z,20.27
2022-09-06T02:38:35.748Z,20.30
2022-09-06T02:39:35.764Z,20.30
2022-09-06T02:40:35.733Z,20.38
2022-09-06T02:41:35.735Z,20.27
2022-09-06T02:42:35.711Z,20.20
2022-09-06T02:43:35.703Z,20.21
2022-09-06T02:44:35.693Z,20.13
2022-09-06T02:45:35.680Z,20.24
2022-09-06T02:46:35.684Z,20.15
2022-09-06T02:47:35.651Z,20.16
2022-09-06T02:48:35.646Z,20.06
2022-09-06T02:49:35.631Z,20.10
2022-09-06T02:50:35.615Z,20.06
2022-09-06T02:51:35.628Z,20.15
2022-09-06T02:52:35.591Z,20.06
2022-09-06T02:53:35.587Z,20.08
2022-09-06T02:54:35.570Z,20.09
2022-09-06T02:55:35.559Z,20.06
2022-09-06T02:56:35.571Z,19.90
2022-09-06T02:57:35.544Z,19.94
2022-09-06T02:58:35.527Z,19.86
2022-09-06T02:59:35.523Z,19.84
2022-09-06T03:00:35.511Z,19.86
2022-09-06T03:01:35.566Z,19.80
2022-09-06T03:02:35.544Z,19.84
2022-09-06T03:03:35.476Z,19.79
2022-09-06T03:04:35.457Z,19.72
2022-09-06T03:05:35.458Z,19.83
2022-09-06T03:06:35.457Z,19.78
2022-09-06T03:07:35.423Z,19.70
2022-09-06T03:08:35.410Z,19.72
2022-09-06T03:09:35.409Z,19.76
2022-09-06T03:10:35.396Z,19.87
2022-09-06T03:11:35.391Z,19.76
2022-09-06T03:12:35.365Z,19.88
2022-09-06T03:13:35.361Z,19.75
2022-09-06T03:14:35.350Z,19.78
2022-09-06T03:15:35.341Z,19.76
2022-09-06T03:16:35.369Z,19.75
2022-09-06T03:17:35.310Z,19.73
2022-09-06T03:18:35.294Z,19.72
2022-09-06T03:19:35.295Z,19.76
2022-09-06T03:20:37.186Z,19.75
2022-09-06T03:21:35.287Z,19.78
2022-09-06T03:22:35.271Z,19.75
2022-09-06T03:23:35.243Z,19.78
2022-09-06T03:24:35.235Z,19.80
2022-09-06T03:25:35.227Z,19.79
2022-09-06T03:26:35.231Z,19.72
2022-09-06T03:27:35.202Z,19.83
2022-09-06T03:28:35.184Z,19.78
2022-09-06T03:29:35.177Z,19.79
2022-09-06T03:30:35.220Z,19.84
2022-09-06T03:31:35.172Z,19.84
2022-09-06T03:32:35.146Z,19.86
2022-09-06T03:33:35.125Z,19.83
2022-09-06T03:34:35.124Z,19.76
2022-09-06T03:35:35.103Z,19.86
2022-09-06T03:36:35.116Z,19.88
2022-09-06T03:37:35.081Z,19.84
2022-09-06T03:38:35.077Z,19.76
2022-09-06T03:39:35.108Z,19.76
2022-09-06T03:40:35.055Z,19.78
2022-09-06T03:41:35.056Z,19.83
2022-09-06T03:42:35.034Z,19.83
2022-09-06T03:43:35.013Z,19.79
2022-09-06T03:44:35.002Z,19.78
2022-09-06T03:45:35.030Z,19.70
2022-09-06T03:46:34.993Z,19.75
2022-09-06T03:47:34.979Z,19.69
2022-09-06T03:48:34.961Z,19.66
2022-09-06T03:49:34.949Z,19.70
2022-09-06T03:50:34.941Z,19.76
2022-09-06T03:51:34.963Z,19.63
2022-09-06T03:52:34.922Z,19.60
2022-09-06T03:53:34.908Z,19.60
2022-09-06T03:54:34.890Z,19.61
2022-09-06T03:55:34.885Z,19.61
2022-09-06T03:56:34.886Z,19.60
2022-09-06T03:57:34.865Z,19.53
2022-09-06T03:58:34.851Z,19.43
2022-09-06T03:59:34.839Z,19.42
2022-09-06T04:00:34.834Z,19.20
2022-09-06T04:01:34.881Z,19.39
2022-09-06T04:02:34.828Z,19.25
2022-09-06T04:03:34.793Z,19.21
2022-09-06T04:04:34.785Z,19.17
2022-09-06T04:05:34.766Z,19.28
2022-09-06T04:06:34.776Z,19.23
2022-09-06T04:07:34.749Z,19.20
2022-09-06T04:08:34.730Z,19.28
2022-09-06T04:09:34.717Z,19.10
2022-09-06T04:10:34.716Z,19.17
2022-09-06T04:11:34.717Z,19.10
2022-09-06T04:12:34.686Z,19.14
2022-09-06T04:13:34.674Z,19.10
2022-09-06T04:14:34.670Z,19.17
2022-09-06T04:15:34.659Z,19.18
2022-09-06T04:16:34.733Z,19.21
2022-09-06T04:17:34.639Z,19.20
2022-09-06T04:18:34.628Z,19.08
2022-09-06T04:19:34.639Z,19.11
2022-09-06T04:20:34.608Z,19.18
2022-09-06T04:21:34.601Z,19.14
2022-09-06T04:22:34.577Z,19.08
2022-09-06T04:23:39.278Z,19.10
2022-09-06T04:24:35.557Z,19.13
2022-09-06T04:25:34.546Z,19.11
2022-09-06T04:26:34.546Z,19.17
2022-09-06T04:27:34.518Z,19.15
2022-09-06T04:28:34.539Z,19.08
2022-09-06T04:29:34.502Z,19.08
2022-09-06T04:30:34.484Z,19.13
2022-09-06T04:31:34.571Z,19.06
2022-09-06T04:32:34.468Z,19.05
2022-09-06T04:33:34.455Z,18.94
2022-09-06T04:34:34.462Z,18.97
2022-09-06T04:35:34.428Z,18.92
2022-09-06T04:36:34.437Z,18.94
2022-09-06T04:37:34.407Z,18.90
2022-09-06T04:38:34.407Z,18.83
2022-09-06T04:39:34.423Z,18.79
2022-09-06T04:40:34.384Z,18.92
2022-09-06T04:41:34.363Z,18.86
2022-09-06T04:42:34.359Z,18.73
2022-09-06T04:43:34.343Z,18.82
2022-09-06T04:44:34.325Z,18.80
2022-09-06T04:45:34.358Z,18.70
2022-09-06T04:46:34.308Z,18.73
2022-09-06T04:47:34.320Z,18.68
2022-09-06T04:48:34.281Z,18.77
2022-09-06T04:49:34.267Z,18.77
2022-09-06T04:50:34.258Z,18.68
2022-09-06T04:51:34.245Z,18.68
2022-09-06T04:52:34.257Z,18.62
2022-09-06T04:53:34.230Z,18.76
2022-09-06T04:54:34.223Z,18.70
2022-09-06T04:55:34.230Z,18.65
2022-09-06T04:56:34.193Z,18.61
2022-09-06T04:57:34.200Z,18.70
2022-09-06T04:58:34.176Z,18.67
2022-09-06T04:59:34.164Z,18.67
2022-09-06T05:00:34.159Z,18.74
2022-09-06T05:01:34.200Z,18.73
2022-09-06T05:02:34.208Z,18.73
2022-09-06T05:03:34.120Z,18.64
2022-09-06T05:04:34.110Z,18.67
2022-09-06T05:05:34.112Z,18.57
2022-09-06T05:06:34.085Z,18.59
2022-09-06T05:07:34.078Z,18.49
2022-09-06T05:08:34.063Z,18.59
2022-09-06T05:09:34.049Z,18.55
2022-09-06T05:10:34.042Z,18.50
2022-09-06T05:11:34.022Z,18.58
2022-09-06T05:12:34.049Z,18.58
2022-09-06T05:13:34.007Z,18.50
2022-09-06T05:14:33.998Z,18.54
2022-09-06T05:15:33.983Z,18.62
2022-09-06T05:16:34.041Z,18.50
2022-09-06T05:17:33.967Z,18.55
2022-09-06T05:18:33.945Z,18.59
2022-09-06T05:19:33.935Z,18.64
2022-09-06T05:20:33.929Z,18.65
2022-09-06T05:21:33.915Z,18.58
2022-09-06T05:22:33.940Z,18.73
2022-09-06T05:23:33.898Z,18.64
2022-09-06T05:24:33.882Z,18.76
2022-09-06T05:25:33.863Z,18.77
2022-09-06T05:26:33.863Z,18.64
2022-09-06T05:27:33.862Z,18.76
2022-09-06T05:28:33.832Z,18.72
2022-09-06T05:29:33.822Z,18.73
2022-09-06T05:30:33.818Z,18.76
2022-09-06T05:31:33.866Z,18.72
2022-09-06T05:32:33.807Z,18.70
2022-09-06T05:33:33.782Z,18.76
2022-09-06T05:34:33.767Z,18.79
2022-09-06T05:35:33.772Z,18.74
2022-09-06T05:36:33.759Z,18.82
2022-09-06T05:37:33.766Z,18.77
2022-09-06T05:38:34.041Z,18.79
2022-09-06T05:39:33.778Z,18.87
2022-09-06T05:40:33.705Z,18.80
2022-09-06T05:41:33.698Z,18.83
2022-09-06T05:42:33.695Z,18.74
2022-09-06T05:43:33.671Z,18.94
2022-09-06T05:44:33.652Z,18.99
2022-09-06T05:45:33.667Z,18.98
2022-09-06T05:46:33.662Z,18.99
2022-09-06T05:47:33.630Z,19.06
2022-09-06T05:48:37.029Z,19.08
2022-09-06T05:49:33.612Z,19.02
2022-09-06T05:50:33.593Z,19.20
2022-09-06T05:51:33.572Z,19.11
2022-09-06T05:52:33.609Z,19.15
2022-09-06T05:53:33.558Z,19.20
2022-09-06T05:54:33.539Z,19.14
2022-09-06T05:55:33.530Z,19.14
2022-09-06T05:56:33.526Z,19.18
2022-09-06T05:57:33.527Z,19.21
2022-09-06T05:58:33.495Z,19.25
2022-09-06T05:59:33.485Z,19.38
2022-09-06T06:00:33.472Z,19.33
2022-09-06T06:01:33.558Z,19.35
2022-09-06T06:02:33.566Z,19.36
2022-09-06T06:03:33.438Z,19.38
2022-09-06T06:04:33.427Z,19.47
2022-09-06T06:05:33.424Z,19.47
2022-09-06T06:06:33.416Z,19.51
2022-09-06T06:07:33.413Z,19.40
2022-09-06T06:08:33.390Z,19.50
2022-09-06T06:09:33.377Z,19.47
2022-09-06T06:10:37.883Z,19.57
2022-09-06T06:11:34.348Z,19.61
2022-09-06T06:12:33.355Z,19.73
2022-09-06T06:13:33.336Z,19.65
2022-09-06T06:14:33.326Z,19.78
2022-09-06T06:15:33.304Z,19.76
2022-09-06T06:16:33.359Z,19.88
2022-09-06T06:17:33.302Z,19.86
2022-09-06T06:18:33.278Z,19.94
2022-09-06T06:19:33.278Z,19.98
2022-09-06T06:20:33.249Z,20.00
2022-09-06T06:21:33.250Z,20.06
2022-09-06T06:22:33.250Z,20.05
2022-09-06T06:23:33.218Z,20.25
2022-09-06T06:24:33.211Z,20.28
2022-09-06T06:25:33.190Z,20.31
2022-09-06T06:26:33.188Z,20.41
2022-09-06T06:27:33.194Z,20.51
2022-09-06T06:28:33.162Z,20.62
2022-09-06T06:29:33.147Z,20.71
2022-09-06T06:30:33.149Z,20.68
2022-09-06T06:31:33.255Z,20.69
2022-09-06T06:32:33.143Z,20.76
2022-09-06T06:33:33.109Z,20.84
2022-09-06T06:34:33.098Z,20.84
2022-09-06T06:35:35.173Z,20.84
2022-09-06T06:36:34.078Z,21.01
2022-09-06T06:37:33.075Z,20.98
2022-09-06T06:38:33.052Z,21.05
2022-09-06T06:39:33.095Z,21.17
2022-09-06T06:40:33.030Z,21.14
2022-09-06T06:41:33.024Z,21.26
2022-09-06T06:42:33.020Z,21.26
2022-09-06T06:43:32.995Z,21.26
2022-09-06T06:44:32.985Z,21.19
2022-09-06T06:45:33.051Z,21.26
2022-09-06T06:46:32.958Z,21.23
2022-09-06T06:47:32.973Z,21.27
2022-09-06T06:48:32.950Z,21.26
2022-09-06T06:49:32.955Z,21.34
2022-09-06T06:50:33.070Z,21.23
2022-09-06T06:51:33.899Z,21.23
2022-09-06T06:52:32.908Z,21.26
2022-09-06T06:53:32.886Z,21.27
2022-09-06T06:54:32.875Z,21.13
2022-09-06T06:55:32.862Z,21.21
2022-09-06T06:56:32.842Z,21.11
2022-09-06T06:57:32.853Z,21.14
2022-09-06T06:58:32.832Z,21.19
2022-09-06T06:59:32.816Z,21.11
2022-09-06T07:00:32.990Z,21.11
2022-09-06T07:01:32.970Z,21.23
2022-09-06T07:02:32.828Z,21.16
2022-09-06T07:03:32.763Z,21.13
2022-09-06T07:04:32.759Z,21.14
2022-09-06T07:07:35.552Z,21.09
2022-09-06T07:08:32.707Z,21.20
2022-09-06T07:10:34.122Z,21.20
2022-09-06T07:11:32.679Z,21.23
2022-09-06T07:12:32.683Z,21.13
2022-09-06T07:13:32.662Z,21.17
2022-09-06T07:14:32.646Z,21.17
2022-09-06T07:15:32.643Z,21.23
2022-09-06T07:16:32.738Z,21.26
2022-09-06T07:17:32.619Z,21.27
2022-09-06T07:18:32.595Z,21.36
2022-09-06T07:22:32.562Z,21.41
2022-09-06T07:24:33.525Z,21.51
2022-09-06T07:25:32.523Z,21.42
2022-09-06T07:26:32.668Z,21.50
2022-09-06T07:27:48.910Z,21.54
2022-09-06T07:28:33.482Z,21.61
2022-09-06T07:29:32.498Z,21.61
2022-09-06T07:30:32.467Z,21.60
2022-09-06T07:32:33.452Z,21.76
2022-09-06T07:33:32.429Z,21.64
2022-09-06T07:34:32.426Z,21.75
2022-09-06T07:35:32.432Z,21.64
2022-09-06T07:36:32.394Z,21.76
2022-09-06T07:37:32.404Z,21.88
2022-09-06T07:38:32.372Z,21.92
2022-09-06T07:39:32.411Z,21.90
2022-09-06T07:40:32.343Z,21.81
2022-09-06T07:41:32.340Z,21.98
2022-09-06T07:42:36.150Z,21.99
2022-09-06T07:43:32.320Z,22.04
2022-09-06T07:44:32.307Z,22.12
2022-09-06T07:45:33.173Z,22.16
2022-09-06T07:46:32.363Z,22.16
2022-09-06T07:48:01.673Z,22.29
2022-09-06T07:48:33.252Z,22.20
2022-09-06T07:49:34.768Z,22.28
2022-09-06T07:50:48.910Z,22.37
2022-09-06T07:51:33.229Z,22.31
2022-09-06T07:53:33.558Z,22.52
2022-09-06T07:54:33.174Z,22.49
2022-09-06T07:55:32.187Z,22.53
2022-09-06T07:56:32.163Z,22.54
2022-09-06T07:57:32.174Z,22.57
2022-09-06T07:58:32.157Z,22.75
2022-09-06T07:59:32.137Z,22.69
2022-09-06T08:00:32.124Z,22.83
2022-09-06T08:01:32.114Z,22.87
2022-09-06T08:02:32.183Z,22.97
2022-09-06T08:03:32.097Z,22.99
2022-09-06T08:04:32.079Z,23.01
2022-09-06T08:07:40.609Z,23.11
2022-09-06T08:09:33.032Z,23.20
2022-09-06T08:10:32.014Z,23.26
2022-09-06T08:11:31.998Z,23.26
2022-09-06T08:12:32.004Z,23.27
2022-09-06T08:13:31.974Z,23.31
2022-09-06T08:14:31.976Z,23.34
2022-09-06T08:15:33.519Z,23.31
2022-09-06T08:16:32.097Z,23.35
2022-09-06T08:17:31.978Z,23.38
2022-09-06T08:18:31.928Z,23.43
2022-09-06T08:19:31.916Z,23.50
2022-09-06T08:20:31.897Z,23.60
2022-09-06T08:21:31.886Z,23.61
2022-09-06T08:22:31.891Z,23.76
2022-09-06T08:23:31.870Z,23.68
2022-09-06T08:24:31.857Z,23.79
2022-09-06T08:25:31.842Z,23.70
2022-09-06T08:26:31.860Z,23.95
2022-09-06T08:27:31.835Z,23.87
2022-09-06T08:28:31.824Z,24.05
2022-09-06T08:29:31.806Z,24.14
2022-09-06T08:30:31.788Z,24.27
2022-09-06T08:31:31.885Z,24.37
2022-09-06T08:32:31.785Z,24.42
2022-09-06T08:33:31.774Z,24.39
2022-09-06T08:34:31.755Z,24.41
2022-09-06T08:35:31.732Z,24.35
2022-09-06T08:36:31.722Z,24.42
2022-09-06T08:37:31.718Z,24.50
2022-09-06T08:38:31.695Z,24.57
2022-09-06T08:39:31.785Z,24.68
2022-09-06T08:40:31.676Z,24.69
2022-09-06T08:41:31.664Z,24.69
2022-09-06T08:42:31.677Z,24.87
2022-09-06T08:43:31.647Z,24.97
2022-09-06T08:45:32.646Z,24.91
2022-09-06T08:46:31.712Z,25.07
2022-09-06T08:47:31.642Z,25.02
2022-09-06T08:48:31.586Z,25.02
2022-09-06T08:49:31.597Z,25.10
2022-09-06T08:50:31.566Z,25.15
2022-09-06T08:51:33.376Z,25.19
2022-09-06T08:52:31.563Z,25.25
2022-09-06T08:53:31.533Z,25.34
2022-09-06T08:54:31.519Z,25.38
2022-09-06T08:55:31.514Z,25.56
2022-09-06T08:56:31.528Z,25.69
2022-09-06T08:57:31.508Z,25.75
2022-09-06T08:58:31.474Z,26.05
2022-09-06T08:59:31.475Z,26.32
2022-09-06T09:00:31.496Z,26.40
2022-09-06T09:01:31.444Z,26.57
2022-09-06T09:02:31.451Z,26.62
2022-09-06T09:03:31.423Z,26.80
2022-09-06T09:04:31.409Z,26.80
2022-09-06T09:05:31.397Z,26.95
2022-09-06T09:06:31.391Z,27.17
2022-09-06T09:07:31.388Z,27.29
2022-09-06T09:08:31.426Z,27.33
2022-09-06T09:09:31.352Z,27.53
2022-09-06T09:10:31.340Z,27.64
2022-09-06T09:11:31.332Z,27.54
2022-09-06T09:12:31.343Z,27.47
2022-09-06T09:13:31.321Z,27.61
2022-09-06T09:14:31.296Z,27.71
2022-09-06T09:15:31.295Z,27.91
2022-09-06T09:16:31.354Z,27.82
2022-09-06T09:17:31.319Z,27.79
2022-09-06T09:18:31.257Z,27.85
2022-09-06T09:19:31.264Z,27.82
2022-09-06T09:20:31.274Z,27.92
2022-09-06T09:21:31.292Z,27.92
2022-09-06T09:22:31.231Z,27.70
2022-09-06T09:23:31.199Z,27.61
2022-09-06T09:24:31.197Z,27.61
2022-09-06T09:25:31.185Z,27.62
2022-09-06T09:26:31.162Z,27.51
2022-09-06T09:27:31.175Z,27.47
2022-09-06T09:28:31.146Z,27.66
2022-09-06T09:29:35.690Z,27.73
2022-09-06T09:30:48.066Z,27.76
2022-09-06T09:31:32.231Z,27.85
2022-09-06T09:32:31.130Z,27.98
2022-09-06T09:33:31.094Z,27.89
2022-09-06T09:34:31.085Z,28.01
2022-09-06T09:35:31.065Z,28.06
2022-09-06T09:36:31.165Z,28.35
2022-09-06T09:37:47.047Z,28.66
2022-09-06T09:38:32.050Z,28.90
2022-09-06T09:39:31.074Z,28.91
2022-09-06T09:40:31.011Z,28.84
2022-09-06T09:41:31.001Z,28.82
2022-09-06T09:42:31.014Z,29.00
2022-09-06T09:43:31.006Z,29.22
2022-09-06T09:44:30.973Z,29.55
2022-09-06T09:45:30.958Z,29.81
2022-09-06T09:46:30.977Z,30.30
2022-09-06T09:47:30.941Z,30.59
2022-09-06T09:48:30.944Z,30.72
2022-09-06T09:49:30.918Z,30.94
2022-09-06T09:50:30.904Z,30.84
2022-09-06T09:51:30.905Z,30.64
2022-09-06T09:52:30.978Z,30.61
2022-09-06T09:53:30.900Z,30.54
2022-09-06T09:54:30.872Z,30.78
2022-09-06T09:55:30.853Z,30.64
2022-09-06T09:56:30.852Z,30.40
2022-09-06T09:57:30.828Z,30.47
2022-09-06T09:58:30.829Z,30.47
2022-09-06T09:59:30.815Z,30.84
2022-09-06T10:00:30.845Z,30.98
2022-09-06T10:01:30.782Z,31.13
2022-09-06T10:02:30.782Z,31.11
2022-09-06T10:03:31.244Z,30.84
2022-09-06T10:04:46.237Z,30.86
2022-09-06T10:05:31.747Z,30.83
2022-09-06T10:07:31.717Z,30.50
2022-09-06T10:08:30.731Z,30.46
2022-09-06T10:09:30.703Z,30.33
2022-09-06T10:10:30.691Z,30.50
2022-09-06T10:11:30.692Z,30.84
2022-09-06T10:12:30.668Z,31.06
2022-09-06T10:13:30.687Z,31.38
2022-09-06T10:14:30.642Z,31.65
2022-09-06T10:15:30.642Z,31.68
2022-09-06T10:16:30.670Z,31.43
2022-09-06T10:17:30.608Z,31.13
2022-09-06T10:18:30.618Z,31.06
2022-09-06T10:19:30.592Z,31.36
2022-09-06T10:20:30.586Z,31.57
2022-09-06T10:21:30.587Z,31.91
2022-09-06T10:22:30.573Z,32.06
2022-09-06T10:24:31.544Z,32.25
2022-09-06T10:25:30.534Z,32.51
2022-09-06T10:26:30.511Z,32.36
2022-09-06T10:27:30.510Z,32.33
2022-09-06T10:28:30.513Z,32.36
2022-09-06T10:29:30.499Z,32.22
2022-09-06T10:30:30.476Z,31.91
2022-09-06T10:31:30.541Z,31.73
2022-09-06T10:32:31.216Z,31.73
2022-09-06T10:33:30.457Z,31.43
2022-09-06T10:34:30.427Z,31.31
2022-09-06T10:35:30.431Z,31.23
2022-09-06T10:36:30.408Z,31.17
2022-09-06T10:37:30.398Z,31.23
2022-09-06T10:38:30.405Z,31.24
2022-09-06T10:39:30.409Z,31.26
2022-09-06T10:40:30.370Z,31.40
2022-09-06T10:41:30.353Z,31.43
2022-09-06T10:42:30.347Z,31.68
2022-09-06T10:43:30.375Z,31.79
2022-09-06T10:44:30.328Z,31.98
2022-09-06T10:45:30.317Z,32.10
2022-09-06T10:46:30.417Z,31.84
2022-09-06T10:47:30.296Z,31.75
2022-09-06T10:48:30.486Z,31.54
2022-09-06T10:49:30.275Z,31.45
2022-09-06T10:50:30.260Z,31.27
2022-09-06T10:51:30.259Z,31.15
2022-09-06T10:52:30.247Z,31.04
2022-09-06T10:53:30.240Z,31.13
2022-09-06T10:54:30.222Z,31.02
2022-09-06T10:55:30.213Z,31.15
2022-09-06T10:56:30.210Z,31.31
2022-09-06T11:00:30.158Z,31.75
2022-09-06T11:01:30.250Z,31.82
2022-09-06T11:02:30.346Z,32.02
2022-09-06T11:04:31.113Z,32.07
2022-09-06T11:06:31.094Z,31.76
2022-09-06T11:07:30.092Z,32.13
2022-09-06T11:09:31.066Z,32.32
2022-09-06T11:10:30.066Z,32.48
2022-09-06T11:11:30.073Z,32.43
2022-09-06T11:12:30.037Z,32.47
2022-09-06T11:13:30.046Z,32.44
2022-09-06T11:14:30.015Z,32.58
2022-09-06T11:15:30.000Z,32.64
2022-09-06T11:16:30.041Z,32.86
2022-09-06T11:17:29.987Z,32.99
2022-09-06T11:18:29.999Z,33.11
2022-09-06T11:19:29.960Z,33.33
2022-09-06T11:20:32.295Z,33.46
2022-09-06T11:21:29.934Z,33.78
2022-09-06T11:22:29.919Z,33.82
2022-09-06T11:23:30.062Z,33.95
2022-09-06T11:24:29.900Z,34.01
2022-09-06T11:25:29.894Z,33.97
2022-09-06T11:26:29.882Z,33.86
2022-09-06T11:27:29.875Z,33.79
2022-09-06T11:28:29.875Z,33.60
2022-09-06T11:29:29.853Z,33.48
2022-09-06T11:30:29.855Z,33.27
2022-09-06T11:32:30.837Z,33.06
2022-09-06T11:33:29.935Z,33.15
2022-09-06T11:34:29.791Z,33.33
2022-09-06T11:35:29.793Z,33.45
2022-09-06T11:36:29.775Z,33.48
2022-09-06T11:37:29.766Z,33.71
2022-09-06T11:38:29.766Z,33.95
2022-09-06T11:40:30.784Z,34.39
2022-09-06T11:41:29.723Z,34.48
2022-09-06T11:42:29.706Z,34.72
2022-09-06T11:43:29.709Z,34.77
2022-09-06T11:44:29.689Z,35.08
2022-09-06T11:45:29.689Z,35.20
2022-09-06T11:46:29.693Z,35.11
2022-09-06T11:47:29.670Z,35.02
2022-09-06T11:48:29.665Z,34.96
2022-09-06T11:49:29.658Z,34.69
2022-09-06T11:50:29.640Z,34.58
2022-09-06T11:51:29.631Z,34.57
2022-09-06T11:52:29.619Z,34.53
2022-09-06T11:53:29.790Z,34.46
2022-09-06T11:54:29.592Z,34.64
2022-09-06T11:55:29.585Z,34.77
2022-09-06T11:56:29.569Z,35.02
2022-09-06T11:57:29.551Z,35.18
2022-09-06T11:58:29.556Z,35.40
2022-09-06T11:59:29.551Z,35.44
2022-09-06T12:00:29.536Z,35.60
2022-09-06T12:01:29.532Z,35.74
2022-09-06T12:02:29.691Z,35.89
2022-09-06T12:04:30.494Z,35.99
2022-09-06T12:05:29.469Z,35.95
2022-09-06T12:06:29.463Z,35.93
2022-09-06T12:07:29.452Z,35.67
2022-09-06T12:08:29.620Z,35.58
2022-09-06T12:09:29.441Z,35.60
2022-09-06T12:10:29.426Z,35.20
2022-09-06T12:11:30.658Z,35.08
2022-09-06T12:12:29.392Z,34.88
2022-09-06T12:13:29.392Z,34.76
2022-09-06T12:14:29.400Z,34.63
2022-09-06T12:15:29.368Z,34.50
2022-09-06T12:16:29.410Z,34.32
2022-09-06T12:17:29.340Z,34.27
2022-09-06T12:18:29.420Z,34.07
2022-09-06T12:19:29.325Z,33.92
2022-09-06T12:20:29.326Z,33.98
2022-09-06T12:21:29.305Z,33.85
2022-09-06T12:22:29.300Z,33.76
2022-09-06T12:23:29.285Z,33.67
2022-09-06T12:24:29.272Z,33.71
2022-09-06T12:25:29.267Z,33.58
2022-09-06T12:26:29.256Z,33.58
2022-09-06T12:27:29.233Z,33.45
2022-09-06T12:28:29.392Z,33.33
2022-09-06T12:29:29.220Z,33.45
2022-09-06T12:30:29.229Z,33.70
2022-09-06T12:31:29.330Z,33.82
2022-09-06T12:32:31.630Z,34.04
2022-09-06T12:33:29.169Z,34.39
2022-09-06T12:34:29.179Z,34.46
2022-09-06T12:36:30.185Z,34.99
2022-09-06T12:37:29.133Z,35.23
2022-09-06T12:38:29.194Z,35.52
2022-09-06T12:39:29.195Z,35.72
2022-09-06T12:40:29.098Z,35.99
2022-09-06T12:41:29.106Z,36.15
2022-09-06T12:42:29.082Z,36.23
2022-09-06T12:43:29.076Z,36.39
2022-09-06T12:44:29.091Z,36.31
2022-09-06T12:45:29.045Z,36.31
2022-09-06T12:46:29.127Z,36.29
2022-09-06T12:47:29.025Z,36.19
2022-09-06T12:48:29.154Z,36.27
2022-09-06T12:49:29.008Z,36.23
2022-09-06T12:50:29.004Z,36.06
2022-09-06T12:51:28.996Z,36.03
2022-09-06T12:52:28.972Z,36.04
2022-09-06T12:53:28.965Z,36.00
2022-09-06T12:54:28.957Z,36.00
2022-09-06T12:55:28.940Z,36.17
2022-09-06T12:56:28.954Z,36.15
2022-09-06T12:57:28.928Z,36.30
2022-09-06T12:58:29.141Z,36.31
2022-09-06T12:59:28.895Z,36.03
2022-09-06T13:00:28.902Z,35.76
2022-09-06T13:01:29.016Z,35.44
2022-09-06T13:02:28.970Z,35.33
2022-09-06T13:03:28.857Z,35.30
2022-09-06T13:04:28.857Z,35.07
2022-09-06T13:05:28.836Z,34.86
2022-09-06T13:06:28.853Z,34.80
2022-09-06T13:07:28.812Z,34.64
2022-09-06T13:08:28.881Z,34.66
2022-09-06T13:09:28.799Z,34.61
2022-09-06T13:10:28.785Z,34.61
2022-09-06T13:11:28.871Z,34.51
2022-09-06T13:12:28.764Z,34.53
2022-09-06T13:13:28.784Z,34.42
2022-09-06T13:14:28.741Z,34.38
2022-09-06T13:15:28.773Z,34.24
2022-09-06T13:16:28.750Z,34.17
2022-09-06T13:17:28.711Z,34.02